createdAt,value
2023-01-13T00:00:22.963Z,5.75
2023-01-13T00:02:50.522Z,7.03
2023-01-13T00:05:18.168Z,5.38
2023-01-13T00:07:46.388Z,6.68
2023-01-13T00:10:13.912Z,9.65
2023-01-13T00:12:41.773Z,8.50
2023-01-13T00:15:10.817Z,10.97
2023-01-13T00:17:39.864Z,8.13
2023-01-13T00:20:08.313Z,9.90
2023-01-13T00:22:36.108Z,7.90
2023-01-13T00:25:04.237Z,7.13
2023-01-13T00:27:31.884Z,9.40
2023-01-13T00:29:59.642Z,10.13
2023-01-13T00:32:27.472Z,8.75
2023-01-13T00:34:56.674Z,9.38
2023-01-13T00:37:24.187Z,6.60
2023-01-13T00:39:52.001Z,8.10
2023-01-13T00:42:37.108Z,6.35
2023-01-13T00:45:05.376Z,7.43
2023-01-13T00:47:32.903Z,4.97
2023-01-13T00:50:01.794Z,4.78
2023-01-13T00:52:29.340Z,4.37
2023-01-13T00:54:57.029Z,6.63
2023-01-13T00:57:24.571Z,6.32
2023-01-13T00:59:52.083Z,4.30
2023-01-13T01:02:19.584Z,4.25
2023-01-13T01:04:47.138Z,4.40
2023-01-13T01:07:16.006Z,3.78
2023-01-13T01:09:43.523Z,6.95
2023-01-13T01:12:11.072Z,6.70
2023-01-13T01:14:38.602Z,5.45
2023-01-13T01:17:06.159Z,6.03
2023-01-13T01:19:37.255Z,6.78
2023-01-13T01:22:04.749Z,4.95
2023-01-13T01:24:33.610Z,5.25
2023-01-13T01:27:01.131Z,6.30
2023-01-13T01:29:28.689Z,5.00
2023-01-13T01:31:58.132Z,6.13
2023-01-13T01:34:25.680Z,6.18
2023-01-13T01:36:53.172Z,5.82
2023-01-13T01:39:20.683Z,5.82
2023-01-13T01:42:03.483Z,7.87
2023-01-13T01:45:01.272Z,4.32
2023-01-13T01:47:30.898Z,5.28
2023-01-13T01:49:59.382Z,6.15
2023-01-13T01:52:31.711Z,7.13
2023-01-13T01:55:04.016Z,10.43
2023-01-13T01:57:39.195Z,7.28
2023-01-13T02:00:07.993Z,9.35
2023-01-13T02:02:44.463Z,7.45
2023-01-13T02:05:12.048Z,8.95
2023-01-13T02:07:41.938Z,10.27
2023-01-13T02:10:12.010Z,5.80
2023-01-13T02:12:42.746Z,15.02
2023-01-13T02:15:12.924Z,11.07
2023-01-13T02:18:00.495Z,6.85
2023-01-13T02:20:57.866Z,7.73
2023-01-13T02:24:20.211Z,13.57
2023-01-13T02:27:18.385Z,16.60
2023-01-13T02:30:30.201Z,7.03
2023-01-13T02:33:09.905Z,10.73
2023-01-13T02:35:46.147Z,8.27
2023-01-13T02:38:16.147Z,9.57
2023-01-13T02:40:55.644Z,8.30
2023-01-13T02:43:47.000Z,12.25
2023-01-13T02:46:22.659Z,12.75
2023-01-13T02:48:53.597Z,11.67
2023-01-13T02:51:24.863Z,15.35
2023-01-13T02:53:57.511Z,9.80
2023-01-13T02:56:27.491Z,12.95
2023-01-13T02:58:57.075Z,9.60
2023-01-13T03:01:26.326Z,11.47
2023-01-13T03:03:53.941Z,14.52
2023-01-13T03:06:37.081Z,10.55
2023-01-13T03:09:10.056Z,13.70
2023-01-13T03:11:51.634Z,11.57
2023-01-13T03:14:37.172Z,16.43
2023-01-13T03:17:18.369Z,10.40
2023-01-13T03:19:58.136Z,11.15
2023-01-13T03:22:32.740Z,14.23
2023-01-13T03:25:08.255Z,16.30
2023-01-13T03:27:43.206Z,11.80
2023-01-13T03:30:18.832Z,15.52
2023-01-13T03:32:53.067Z,11.95
2023-01-13T03:35:24.953Z,14.70
2023-01-13T03:37:58.884Z,10.90
2023-01-13T03:40:29.938Z,17.13
2023-01-13T03:43:20.965Z,11.80
2023-01-13T03:45:52.583Z,11.50
2023-01-13T03:48:26.813Z,11.35
2023-01-13T03:50:56.845Z,15.45
2023-01-13T03:53:30.338Z,11.40
2023-01-13T03:56:01.742Z,10.77
2023-01-13T03:58:33.757Z,14.30
2023-01-13T04:01:06.516Z,14.90
2023-01-13T04:03:41.141Z,13.95
2023-01-13T04:06:16.888Z,19.07
2023-01-13T04:08:51.324Z,13.82
2023-01-13T04:11:23.452Z,17.15
2023-01-13T04:13:51.848Z,17.67
2023-01-13T04:16:19.460Z,14.32
2023-01-13T04:18:50.920Z,16.83
2023-01-13T04:21:18.469Z,16.67
2023-01-13T04:23:46.035Z,22.27
2023-01-13T04:26:13.541Z,19.77
2023-01-13T04:28:41.068Z,17.50
2023-01-13T04:31:08.644Z,18.73
2023-01-13T04:33:36.173Z,20.33
2023-01-13T04:36:05.822Z,21.85
2023-01-13T04:38:33.326Z,17.40
2023-01-13T04:41:00.861Z,18.80
2023-01-13T04:43:28.403Z,18.00
2023-01-13T04:45:56.081Z,18.27
2023-01-13T04:48:23.598Z,14.63
2023-01-13T04:50:51.151Z,18.20
2023-01-13T04:53:19.985Z,21.30
2023-01-13T04:55:49.592Z,15.60
2023-01-13T04:58:17.135Z,19.50
2023-01-13T05:00:44.907Z,12.65
2023-01-13T05:03:12.468Z,14.82
2023-01-13T05:05:40.147Z,14.68
2023-01-13T05:08:08.954Z,18.73
2023-01-13T05:10:37.855Z,16.30
2023-01-13T05:13:22.856Z,18.25
2023-01-13T05:16:09.237Z,16.73
2023-01-13T05:18:38.043Z,15.45
2023-01-13T05:21:25.702Z,21.37
2023-01-13T05:24:11.038Z,20.95
2023-01-13T05:26:39.948Z,20.90
2023-01-13T05:29:07.464Z,19.73
2023-01-13T05:31:35.044Z,20.67
2023-01-13T05:34:02.706Z,18.30
2023-01-13T05:36:30.274Z,20.60
2023-01-13T05:38:57.818Z,19.48
2023-01-13T05:41:42.921Z,16.85
2023-01-13T05:44:11.744Z,15.75
2023-01-13T05:46:40.392Z,14.53
2023-01-13T05:49:07.953Z,18.95
2023-01-13T05:51:35.474Z,20.17
2023-01-13T05:54:03.032Z,20.17
2023-01-13T05:56:30.604Z,22.08
2023-01-13T05:58:58.104Z,18.60
2023-01-13T06:01:27.083Z,12.55
2023-01-13T06:03:54.701Z,16.50
2023-01-13T06:06:22.232Z,15.35
2023-01-13T06:08:50.188Z,19.23
2023-01-13T06:11:17.780Z,20.33
2023-01-13T06:13:45.364Z,19.42
2023-01-13T06:16:12.933Z,21.88
2023-01-13T06:18:41.861Z,16.33
2023-01-13T06:21:09.432Z,20.38
2023-01-13T06:23:38.531Z,18.13
2023-01-13T06:26:13.328Z,20.95
2023-01-13T06:28:40.903Z,16.45
2023-01-13T06:31:11.067Z,13.32
2023-01-13T06:33:42.098Z,18.15
2023-01-13T06:36:17.326Z,20.70
2023-01-13T06:38:48.370Z,26.20
2023-01-13T06:41:16.729Z,20.02
2023-01-13T06:43:43.335Z,15.95
2023-01-13T06:46:10.868Z,14.18
2023-01-13T06:48:38.436Z,21.67
2023-01-13T06:51:06.427Z,18.80
2023-01-13T06:53:35.285Z,16.70
2023-01-13T06:56:02.765Z,18.27
2023-01-13T06:58:30.290Z,17.13
2023-01-13T07:01:01.080Z,21.20
2023-01-13T07:03:28.651Z,20.52
2023-01-13T07:05:57.132Z,16.95
2023-01-13T07:08:25.402Z,19.13
2023-01-13T07:10:54.579Z,18.17
2023-01-13T07:13:40.166Z,15.20
2023-01-13T07:16:09.122Z,24.05
2023-01-13T07:18:37.012Z,19.65
2023-01-13T07:21:06.931Z,18.73
2023-01-13T07:23:36.351Z,17.92
2023-01-13T07:26:05.871Z,15.17
2023-01-13T07:28:33.730Z,19.55
2023-01-13T07:31:02.067Z,18.10
2023-01-13T07:33:32.786Z,22.17
2023-01-13T07:36:02.233Z,21.17
2023-01-13T07:38:30.222Z,19.00
2023-01-13T07:40:57.880Z,17.42
2023-01-13T07:43:31.869Z,17.33
2023-01-13T07:45:59.927Z,20.75
2023-01-13T07:48:28.232Z,21.55
2023-01-13T07:50:56.130Z,17.97
2023-01-13T07:53:24.879Z,21.52
2023-01-13T07:55:56.315Z,15.15
2023-01-13T07:58:24.040Z,23.60
2023-01-13T08:00:53.357Z,22.98
2023-01-13T08:03:21.256Z,14.00
2023-01-13T08:05:49.069Z,18.48
2023-01-13T08:08:17.001Z,18.52
2023-01-13T08:10:44.942Z,21.50
2023-01-13T08:13:19.940Z,15.90
2023-01-13T08:15:50.171Z,17.83
2023-01-13T08:18:21.935Z,19.50
2023-01-13T08:20:49.817Z,21.45
2023-01-13T08:23:17.474Z,15.55
2023-01-13T08:25:45.442Z,18.35
2023-01-13T08:28:13.561Z,18.43
2023-01-13T08:30:41.320Z,17.33
2023-01-13T08:33:09.721Z,15.10
2023-01-13T08:35:39.029Z,18.73
2023-01-13T08:38:06.955Z,15.52
2023-01-13T08:40:34.758Z,15.60
2023-01-13T08:43:03.545Z,14.18
2023-01-13T08:45:31.396Z,17.70
2023-01-13T08:47:59.205Z,18.88
2023-01-13T08:50:26.694Z,22.13
2023-01-13T08:52:55.645Z,17.07
2023-01-13T08:55:23.195Z,19.20
2023-01-13T08:57:50.718Z,19.40
2023-01-13T09:00:19.010Z,17.98
2023-01-13T09:02:46.584Z,15.48
2023-01-13T09:05:16.221Z,15.43
2023-01-13T09:07:45.198Z,18.65
2023-01-13T09:10:14.079Z,14.80
2023-01-13T09:12:59.062Z,14.00
2023-01-13T09:15:26.667Z,18.10
2023-01-13T09:17:54.234Z,14.53
2023-01-13T09:20:21.872Z,19.70
2023-01-13T09:22:49.399Z,21.98
2023-01-13T09:25:18.316Z,15.98
2023-01-13T09:27:45.852Z,13.27
2023-01-13T09:30:13.986Z,13.33
2023-01-13T09:32:41.612Z,20.83
2023-01-13T09:35:08.951Z,11.25
2023-01-13T09:37:38.556Z,13.07
2023-01-13T09:40:10.504Z,14.57
2023-01-13T09:43:04.401Z,14.13
2023-01-13T09:45:35.879Z,13.88
2023-01-13T09:48:10.849Z,16.65
2023-01-13T09:50:49.984Z,11.70
2023-01-13T09:53:21.297Z,13.60
2023-01-13T09:55:49.535Z,16.57
2023-01-13T09:58:20.043Z,10.20
2023-01-13T10:00:59.528Z,11.63
2023-01-13T10:03:28.720Z,16.98
2023-01-13T10:06:04.438Z,10.93
2023-01-13T10:08:34.461Z,12.03
2023-01-13T10:11:24.767Z,11.18
2023-01-13T10:13:58.207Z,12.70
2023-01-13T10:16:34.420Z,12.10
2023-01-13T10:19:07.825Z,12.75
2023-01-13T10:21:57.601Z,9.40
2023-01-13T10:24:36.236Z,10.18
2023-01-13T10:27:06.443Z,9.88
2023-01-13T10:29:37.305Z,11.23
2023-01-13T10:32:05.276Z,11.52
2023-01-13T10:34:33.954Z,15.53
2023-01-13T10:37:06.165Z,12.75
2023-01-13T10:39:42.874Z,11.65
2023-01-13T10:42:15.191Z,7.00
2023-01-13T10:44:52.606Z,8.57
2023-01-13T10:47:23.643Z,7.63
2023-01-13T10:50:03.587Z,11.55
2023-01-13T10:52:33.686Z,17.33
2023-01-13T10:55:01.493Z,12.63
2023-01-13T10:57:29.664Z,13.38
2023-01-13T10:59:58.538Z,8.50
2023-01-13T11:02:29.327Z,10.65
2023-01-13T11:05:03.824Z,11.68
2023-01-13T11:07:34.631Z,11.65
2023-01-13T11:10:18.653Z,11.02
2023-01-13T11:12:54.731Z,9.77
2023-01-13T11:15:32.558Z,10.27
2023-01-13T11:18:05.019Z,8.98
2023-01-13T11:20:37.209Z,13.82
2023-01-13T11:23:14.414Z,7.43
2023-01-13T11:25:45.853Z,12.93
2023-01-13T11:28:26.313Z,9.18
2023-01-13T11:31:00.085Z,12.82
2023-01-13T11:33:36.808Z,6.43
2023-01-13T11:36:12.091Z,9.82
2023-01-13T11:38:45.930Z,10.53
2023-01-13T11:41:25.698Z,15.18
2023-01-13T11:43:59.621Z,10.68
2023-01-13T11:46:29.085Z,18.05
2023-01-13T11:48:57.616Z,10.40
2023-01-13T11:51:34.229Z,10.50
2023-01-13T11:54:17.344Z,13.27
2023-01-13T11:57:04.962Z,11.60
2023-01-13T12:00:11.890Z,13.25
2023-01-13T12:02:56.920Z,10.98
2023-01-13T12:05:34.745Z,10.30
2023-01-13T12:08:18.109Z,8.70
2023-01-13T12:10:57.984Z,9.93
2023-01-13T12:13:34.761Z,10.73
2023-01-13T12:16:11.425Z,13.23
2023-01-13T12:19:07.519Z,11.37
2023-01-13T12:21:39.469Z,13.68
2023-01-13T12:24:18.889Z,6.68
2023-01-13T12:26:53.288Z,10.23
2023-01-13T12:29:27.544Z,8.77
2023-01-13T12:31:55.696Z,9.53
2023-01-13T12:34:36.412Z,14.60
2023-01-13T12:37:11.179Z,16.42
2023-01-13T12:39:51.674Z,12.30
2023-01-13T12:42:41.017Z,13.38
2023-01-13T12:45:22.718Z,13.73
2023-01-13T12:47:50.398Z,9.90
2023-01-13T12:51:00.462Z,10.13
2023-01-13T12:53:36.442Z,9.38
2023-01-13T12:56:44.398Z,13.50
2023-01-13T12:59:51.049Z,14.70
2023-01-13T13:02:40.034Z,9.70
2023-01-13T13:05:44.798Z,11.73
2023-01-13T13:08:25.263Z,15.48
2023-01-13T13:11:37.918Z,8.68
2023-01-13T13:14:06.381Z,7.77
2023-01-13T13:16:46.720Z,12.95
2023-01-13T13:19:43.778Z,10.30
2023-01-13T13:22:45.670Z,12.52
2023-01-13T13:25:27.788Z,17.67
2023-01-13T13:28:16.862Z,10.40
2023-01-13T13:30:51.403Z,10.45
2023-01-13T13:33:36.573Z,12.57
2023-01-13T13:36:17.382Z,9.95
2023-01-13T13:39:23.021Z,12.27
2023-01-13T13:42:14.062Z,10.17
2023-01-13T13:45:04.457Z,11.82
2023-01-13T13:47:36.378Z,9.38
2023-01-13T13:50:09.977Z,8.02
2023-01-13T13:52:41.105Z,6.80
2023-01-13T13:55:17.142Z,13.47
2023-01-13T13:57:48.835Z,9.40
2023-01-13T14:00:26.046Z,9.18
2023-01-13T14:02:58.261Z,11.63
2023-01-13T14:05:30.845Z,10.40
2023-01-13T14:08:03.054Z,8.93
2023-01-13T14:10:32.291Z,7.55
2023-01-13T14:13:03.910Z,10.75
2023-01-13T14:15:34.607Z,9.25
2023-01-13T14:18:05.246Z,9.65
2023-01-13T14:20:34.444Z,10.00
2023-01-13T14:23:05.150Z,11.73
2023-01-13T14:25:36.614Z,11.30
2023-01-13T14:28:18.132Z,7.25
2023-01-13T14:30:46.199Z,9.68
2023-01-13T14:33:17.191Z,13.17
2023-01-13T14:36:08.070Z,11.68
2023-01-13T14:38:35.574Z,12.48
2023-01-13T14:41:12.808Z,11.68
2023-01-13T14:43:46.117Z,9.52
2023-01-13T14:46:14.546Z,13.03
2023-01-13T14:48:46.967Z,11.27
2023-01-13T14:51:23.597Z,15.38
2023-01-13T14:53:52.035Z,9.10
2023-01-13T14:56:55.008Z,9.82
2023-01-13T14:59:57.422Z,12.90
2023-01-13T15:02:41.109Z,8.80
2023-01-13T15:05:39.782Z,11.98
2023-01-13T15:08:22.982Z,11.73
2023-01-13T15:10:54.578Z,12.60
2023-01-13T15:13:28.439Z,10.00
2023-01-13T15:15:59.239Z,8.82
2023-01-13T15:18:27.137Z,11.13
2023-01-13T15:20:55.644Z,9.52
2023-01-13T15:23:23.199Z,7.35
2023-01-13T15:25:50.940Z,10.93
2023-01-13T15:28:20.865Z,7.80
2023-01-13T15:30:49.437Z,13.75
2023-01-13T15:33:19.065Z,13.20
2023-01-13T15:35:49.572Z,7.05
2023-01-13T15:38:19.354Z,10.83
2023-01-13T15:40:47.957Z,12.48
2023-01-13T15:43:34.201Z,10.23
2023-01-13T15:46:19.645Z,7.05
2023-01-13T15:48:53.027Z,9.40
2023-01-13T15:51:22.420Z,6.70
2023-01-13T15:53:50.016Z,8.10
2023-01-13T15:56:23.397Z,6.28
2023-01-13T15:58:51.069Z,4.85
2023-01-13T16:01:18.625Z,4.68
2023-01-13T16:03:47.549Z,6.60
2023-01-13T16:06:19.369Z,4.85
2023-01-13T16:08:47.196Z,3.75
2023-01-13T16:11:15.087Z,4.00
2023-01-13T16:13:43.008Z,4.30
2023-01-13T16:16:19.638Z,3.53
2023-01-13T16:18:49.031Z,4.25
2023-01-13T16:21:19.037Z,5.25
2023-01-13T16:23:46.773Z,4.38
2023-01-13T16:26:19.289Z,5.30
2023-01-13T16:28:46.847Z,7.10
2023-01-13T16:31:22.511Z,6.82
2023-01-13T16:33:51.509Z,6.47
2023-01-13T16:36:20.690Z,7.97
2023-01-13T16:38:49.336Z,5.40
2023-01-13T16:41:17.144Z,8.40
2023-01-13T16:43:44.917Z,11.15
2023-01-13T16:46:20.249Z,7.90
2023-01-13T16:48:48.303Z,7.80
2023-01-13T16:51:17.316Z,9.32
2023-01-13T16:53:45.332Z,8.73
2023-01-13T16:56:28.508Z,9.75
2023-01-13T16:58:58.156Z,7.90
2023-01-13T17:01:28.158Z,6.85
2023-01-13T17:03:56.532Z,5.18
2023-01-13T17:06:29.872Z,5.90
2023-01-13T17:09:01.535Z,7.63
2023-01-13T17:11:29.126Z,6.43
2023-01-13T17:13:56.728Z,13.88
2023-01-13T17:16:26.041Z,12.20
2023-01-13T17:18:54.185Z,11.40
2023-01-13T17:21:21.886Z,11.45
2023-01-13T17:23:51.536Z,10.23
2023-01-13T17:26:29.431Z,13.23
2023-01-13T17:28:56.905Z,9.75
2023-01-13T17:31:24.452Z,7.33
2023-01-13T17:33:52.127Z,12.50
2023-01-13T17:36:19.737Z,9.48
2023-01-13T17:38:47.269Z,5.85
2023-01-13T17:41:16.095Z,12.13
2023-01-13T17:43:43.696Z,8.57
2023-01-13T17:46:11.539Z,11.27
2023-01-13T17:48:39.451Z,9.88
2023-01-13T17:51:12.004Z,11.25
2023-01-13T17:53:40.711Z,10.15
2023-01-13T17:56:10.199Z,13.13
2023-01-13T17:58:41.375Z,10.73
2023-01-13T18:01:10.653Z,11.25
2023-01-13T18:03:39.231Z,15.10
2023-01-13T18:06:09.372Z,10.90
2023-01-13T18:08:37.947Z,13.77
2023-01-13T18:11:05.774Z,10.02
2023-01-13T18:13:34.668Z,6.43
2023-01-13T18:16:07.165Z,9.20
2023-01-13T18:18:35.287Z,4.90
2023-01-13T18:21:21.869Z,7.73
2023-01-13T18:24:09.511Z,10.23
2023-01-13T18:26:54.873Z,7.40
2023-01-13T18:29:22.721Z,12.10
2023-01-13T18:31:52.393Z,9.52
2023-01-13T18:34:20.134Z,6.37
2023-01-13T18:36:48.106Z,9.93
2023-01-13T18:39:15.831Z,8.80
2023-01-13T18:42:01.106Z,8.18
2023-01-13T18:44:28.678Z,5.57
2023-01-13T18:46:57.610Z,7.80
2023-01-13T18:49:25.214Z,7.40
2023-01-13T18:51:52.699Z,8.20
2023-01-13T18:54:20.408Z,10.23
2023-01-13T18:56:49.278Z,8.85
2023-01-13T18:59:17.206Z,6.83
2023-01-13T19:01:45.190Z,5.07
2023-01-13T19:04:16.756Z,4.40
2023-01-13T19:06:49.044Z,5.25
2023-01-13T19:09:17.373Z,5.05
2023-01-13T19:11:46.662Z,4.70
2023-01-13T19:14:33.828Z,6.97
2023-01-13T19:17:02.448Z,7.03
2023-01-13T19:19:32.681Z,5.07
2023-01-13T19:22:00.188Z,8.45
2023-01-13T19:24:27.837Z,5.87
2023-01-13T19:26:55.580Z,4.75
2023-01-13T19:29:23.184Z,7.50
2023-01-13T19:31:50.663Z,7.70
2023-01-13T19:34:18.358Z,5.47
2023-01-13T19:36:47.233Z,8.37
2023-01-13T19:39:14.902Z,7.70
2023-01-13T19:42:00.067Z,5.95
2023-01-13T19:44:45.408Z,8.60
2023-01-13T19:47:12.921Z,7.38
2023-01-13T19:49:40.478Z,5.07
2023-01-13T19:52:09.333Z,8.80
2023-01-13T19:54:37.007Z,9.15
2023-01-13T19:57:05.951Z,7.82
2023-01-13T19:59:33.680Z,7.15
2023-01-13T20:02:03.557Z,10.40
2023-01-13T20:04:38.193Z,6.70
2023-01-13T20:07:06.626Z,6.57
2023-01-13T20:09:35.589Z,8.27
2023-01-13T20:12:05.193Z,8.02
2023-01-13T20:14:32.738Z,7.27
2023-01-13T20:17:00.394Z,10.15
2023-01-13T20:19:28.037Z,6.25
2023-01-13T20:21:55.574Z,8.63
2023-01-13T20:24:24.609Z,10.85
2023-01-13T20:26:54.610Z,9.90
2023-01-13T20:29:23.183Z,6.40
2023-01-13T20:31:50.986Z,8.90
2023-01-13T20:34:19.132Z,5.85
2023-01-13T20:36:47.999Z,8.68
2023-01-13T20:39:17.625Z,6.63
2023-01-13T20:42:03.374Z,8.02
2023-01-13T20:44:32.454Z,12.35
2023-01-13T20:47:00.095Z,10.05
2023-01-13T20:49:28.538Z,10.88
2023-01-13T20:51:56.143Z,9.90
2023-01-13T20:54:24.100Z,7.68
2023-01-13T20:56:51.916Z,12.88
2023-01-13T20:59:19.754Z,7.07
2023-01-13T21:01:48.684Z,7.10
2023-01-13T21:04:16.260Z,7.60
2023-01-13T21:06:43.797Z,8.50
2023-01-13T21:09:11.324Z,6.90
2023-01-13T21:11:56.244Z,8.27
2023-01-13T21:14:40.358Z,6.97
2023-01-13T21:17:32.100Z,11.90
2023-01-13T21:19:59.009Z,11.95
2023-01-13T21:22:27.068Z,9.05
2023-01-13T21:24:54.628Z,8.00
2023-01-13T21:27:22.249Z,10.13
2023-01-13T21:29:49.817Z,9.70
2023-01-13T21:32:18.745Z,8.27
2023-01-13T21:34:46.263Z,9.13
2023-01-13T21:37:14.775Z,8.90
2023-01-13T21:39:43.017Z,9.65
2023-01-13T21:42:31.241Z,8.77
2023-01-13T21:45:16.593Z,10.00
2023-01-13T21:47:52.027Z,9.18
2023-01-13T21:50:22.563Z,8.27
2023-01-13T21:52:52.336Z,10.30
2023-01-13T21:55:24.919Z,6.63
2023-01-13T21:57:54.340Z,8.15
2023-01-13T22:00:23.630Z,8.73
2023-01-13T22:02:52.709Z,12.02
2023-01-13T22:05:22.142Z,7.32
2023-01-13T22:07:50.280Z,8.90
2023-01-13T22:10:20.199Z,10.00
2023-01-13T22:12:48.147Z,11.50
2023-01-13T22:15:17.800Z,8.23
2023-01-13T22:17:48.271Z,7.85
2023-01-13T22:20:18.159Z,8.57
2023-01-13T22:22:45.823Z,13.00
2023-01-13T22:25:15.019Z,8.85
2023-01-13T22:27:44.379Z,11.13
2023-01-13T22:30:14.001Z,10.75
2023-01-13T22:32:41.616Z,8.47
2023-01-13T22:35:11.632Z,12.60
2023-01-13T22:37:40.620Z,13.70
2023-01-13T22:40:10.543Z,7.57
2023-01-13T22:42:39.122Z,14.77
2023-01-13T22:45:08.460Z,11.47
2023-01-13T22:47:36.061Z,11.02
2023-01-13T22:50:03.649Z,12.23
2023-01-13T22:52:31.173Z,10.65
2023-01-13T22:55:00.680Z,10.65
2023-01-13T22:57:36.059Z,13.77
2023-01-13T23:00:11.702Z,8.45
2023-01-13T23:02:39.236Z,12.73
2023-01-13T23:05:07.339Z,8.15
2023-01-13T23:07:35.387Z,11.98
2023-01-13T23:10:04.663Z,8.40
2023-01-13T23:12:32.172Z,9.23
2023-01-13T23:14:59.718Z,14.05
2023-01-13T23:17:27.267Z,8.02
2023-01-13T23:19:54.752Z,11.13
2023-01-13T23:22:22.326Z,8.67
2023-01-13T23:24:49.845Z,8.18
2023-01-13T23:27:18.823Z,12.10
2023-01-13T23:29:46.383Z,8.85
2023-01-13T23:32:13.886Z,10.25
2023-01-13T23:34:41.401Z,8.97
2023-01-13T23:37:08.915Z,10.10
2023-01-13T23:39:36.444Z,12.02
2023-01-13T23:42:04.064Z,13.20
2023-01-13T23:44:32.929Z,13.68
2023-01-13T23:47:00.517Z,8.70
2023-01-13T23:49:28.085Z,13.57
2023-01-13T23:51:55.626Z,12.90
2023-01-13T23:54:23.284Z,11.10
2023-01-13T23:56:52.357Z,15.30
2023-01-13T23:59:20.167Z,8.73
